Grandin Road, Virginia
Current Conditions -  °F | °C
As of 6:54 PM on Saturday 22 Nov 2014 (Local Time) from KROA Reporting Station
Scattered Clouds Scattered Clouds  
Wind Chill: 34°   Ceiling: Unl
Heat Index: 40°   Visibility: 10mi
Dew Point: 18°   Wind: 8mph
Humidity: 41%   Direction: 140°SE
Pressure: 30.32"   Gusts: NA
Location:  37.2556°N, 79.9796°W
Report Text: KROA 222354Z 14007KT 10SM SCT250 04/M08 A3032 RMK AO2 SLP278 T00441078 10106 20044 56008
Loading
Personal Weather Stations






























Interactive Weather Map New forecast layout! Learn more

10-Day Weather Forecast

Advertisements
Track Severe Weather on mobile